createdAt,value
2023-02-25T00:00:06.835Z,994.28
2023-02-25T00:00:47.422Z,994.34
2023-02-25T00:01:27.951Z,994.31
2023-02-25T00:02:08.513Z,994.36
2023-02-25T00:02:49.045Z,994.35
2023-02-25T00:03:29.519Z,994.31
2023-02-25T00:04:10.039Z,994.24
2023-02-25T00:04:50.560Z,994.27
2023-02-25T00:05:31.876Z,994.3
2023-02-25T00:06:11.632Z,994.32
2023-02-25T00:06:52.142Z,994.32
2023-02-25T00:07:32.657Z,994.37
2023-02-25T00:08:13.203Z,994.36
2023-02-25T00:08:53.785Z,994.39
2023-02-25T00:09:34.281Z,994.38
2023-02-25T00:10:14.800Z,994.37
2023-02-25T00:10:55.341Z,994.4
2023-02-25T00:11:35.874Z,994.4
2023-02-25T00:12:16.421Z,994.36
2023-02-25T00:13:05.834Z,994.4
2023-02-25T00:13:37.480Z,994.38
2023-02-25T00:14:18.001Z,994.41
2023-02-25T00:14:58.511Z,994.4
2023-02-25T00:15:39.034Z,994.41
2023-02-25T00:16:19.692Z,994.41
2023-02-25T00:17:00.140Z,994.41
2023-02-25T00:17:40.654Z,994.39
2023-02-25T00:18:21.163Z,994.41
2023-02-25T00:19:01.685Z,994.39
2023-02-25T00:19:42.202Z,994.44
2023-02-25T00:20:22.714Z,994.44
2023-02-25T00:21:03.235Z,994.45
2023-02-25T00:21:43.758Z,994.46
2023-02-25T00:22:24.265Z,994.47
2023-02-25T00:23:04.784Z,994.47
2023-02-25T00:23:45.296Z,994.47
2023-02-25T00:24:25.846Z,994.44
2023-02-25T00:25:06.506Z,994.45
2023-02-25T00:25:47.048Z,994.45
2023-02-25T00:26:27.642Z,994.43
2023-02-25T00:27:08.118Z,994.48
2023-02-25T00:27:48.635Z,994.45
2023-02-25T00:28:29.175Z,994.44
2023-02-25T00:29:09.669Z,994.42
2023-02-25T00:29:50.185Z,994.41
2023-02-25T00:30:30.775Z,994.39
2023-02-25T00:31:11.444Z,994.39
2023-02-25T00:31:52.052Z,994.33
2023-02-25T00:32:32.380Z,994.36
2023-02-25T00:33:12.855Z,994.38
2023-02-25T00:33:53.376Z,994.37
2023-02-25T00:34:33.876Z,994.39
2023-02-25T00:35:14.390Z,994.38
2023-02-25T00:35:54.906Z,994.38
2023-02-25T00:36:35.422Z,994.39
2023-02-25T00:37:15.970Z,994.38
2023-02-25T00:38:01.390Z,994.38
2023-02-25T00:38:36.981Z,994.39
2023-02-25T00:39:17.570Z,994.4
2023-02-25T00:39:58.066Z,994.44
2023-02-25T00:40:38.559Z,994.38
2023-02-25T00:41:19.087Z,994.39
2023-02-25T00:42:00.180Z,994.38
2023-02-25T00:42:40.738Z,994.39
2023-02-25T00:43:21.238Z,994.42
2023-02-25T00:44:01.764Z,994.45
2023-02-25T00:44:42.278Z,994.46
2023-02-25T00:45:22.827Z,994.43
2023-02-25T00:46:03.376Z,994.42
2023-02-25T00:46:43.914Z,994.44
2023-02-25T00:47:24.374Z,994.42
2023-02-25T00:48:04.894Z,994.37
2023-02-25T00:48:45.449Z,994.33
2023-02-25T00:49:31.941Z,994.34
2023-02-25T00:50:06.480Z,994.28
2023-02-25T00:50:47.025Z,994.27
2023-02-25T00:51:27.541Z,994.26
2023-02-25T00:52:08.567Z,994.29
2023-02-25T00:52:49.090Z,994.28
2023-02-25T00:53:29.642Z,994.25
2023-02-25T00:54:10.189Z,994.27
2023-02-25T00:54:50.741Z,994.24
2023-02-25T00:55:31.284Z,994.22
2023-02-25T00:56:11.776Z,994.22
2023-02-25T00:56:52.302Z,994.2
2023-02-25T00:57:32.807Z,994.2
2023-02-25T00:58:13.323Z,994.25
2023-02-25T00:58:53.849Z,994.25
2023-02-25T00:59:34.358Z,994.31
2023-02-25T01:00:14.878Z,994.35
2023-02-25T01:00:55.393Z,994.35
2023-02-25T01:01:36.120Z,994.34
2023-02-25T01:02:16.427Z,994.34
2023-02-25T01:02:57.032Z,994.38
2023-02-25T01:03:37.463Z,994.39
2023-02-25T01:04:17.980Z,994.43
2023-02-25T01:04:58.493Z,994.43
2023-02-25T01:05:39.004Z,994.45
2023-02-25T01:06:19.709Z,994.48
2023-02-25T01:07:01.322Z,994.51
2023-02-25T01:07:40.556Z,994.5
2023-02-25T01:08:21.109Z,994.5
2023-02-25T01:09:01.589Z,994.49
2023-02-25T01:09:42.105Z,994.53
2023-02-25T01:10:22.625Z,994.52
2023-02-25T01:11:03.166Z,994.54
2023-02-25T01:11:43.803Z,994.55
2023-02-25T01:12:24.346Z,994.53
2023-02-25T01:13:04.876Z,994.59
2023-02-25T01:13:45.393Z,994.57
2023-02-25T01:14:25.898Z,994.62
2023-02-25T01:15:06.407Z,994.61
2023-02-25T01:15:46.967Z,994.6
2023-02-25T01:16:27.519Z,994.59
2023-02-25T01:17:07.990Z,994.64
2023-02-25T01:17:48.511Z,994.67
2023-02-25T01:18:29.031Z,994.67
2023-02-25T01:19:09.555Z,994.73
2023-02-25T01:19:50.063Z,994.69
2023-02-25T01:20:30.580Z,994.73
2023-02-25T01:21:11.101Z,994.74
2023-02-25T01:21:51.643Z,994.72
2023-02-25T01:22:32.192Z,994.79
2023-02-25T01:23:12.743Z,994.78
2023-02-25T01:23:53.265Z,994.81
2023-02-25T01:24:33.827Z,994.75
2023-02-25T01:25:14.395Z,994.76
2023-02-25T01:25:54.960Z,994.74
2023-02-25T01:26:35.541Z,994.76
2023-02-25T01:27:16.062Z,994.81
2023-02-25T01:27:56.650Z,994.8
2023-02-25T01:28:37.253Z,994.82
2023-02-25T01:29:17.804Z,994.86
2023-02-25T01:29:58.362Z,994.85
2023-02-25T01:30:38.937Z,994.82
2023-02-25T01:31:19.568Z,994.85
2023-02-25T01:32:00.259Z,994.85
2023-02-25T01:32:40.750Z,994.81
2023-02-25T01:33:21.145Z,994.8
2023-02-25T01:34:01.664Z,994.83
2023-02-25T01:34:42.216Z,994.82
2023-02-25T01:35:22.759Z,994.81
2023-02-25T01:36:03.279Z,994.87
2023-02-25T01:36:43.818Z,994.83
2023-02-25T01:37:24.316Z,994.85
2023-02-25T01:38:04.842Z,994.85
2023-02-25T01:38:45.380Z,994.87
2023-02-25T01:39:26.566Z,994.83
2023-02-25T01:40:06.465Z,994.83
2023-02-25T01:40:47.586Z,994.84
2023-02-25T01:41:28.164Z,994.86
2023-02-25T01:43:41.829Z,994.83
2023-02-25T01:44:22.371Z,994.84
2023-02-25T01:45:02.899Z,994.82
2023-02-25T01:45:43.422Z,994.82
2023-02-25T01:46:24.426Z,994.83
2023-02-25T01:47:04.575Z,994.83
2023-02-25T01:47:45.023Z,994.82
2023-02-25T01:48:25.626Z,994.83
2023-02-25T01:49:06.185Z,994.85
2023-02-25T01:49:47.549Z,994.86
2023-02-25T01:50:28.706Z,994.84
2023-02-25T01:51:09.230Z,994.85
2023-02-25T01:51:49.745Z,994.86
2023-02-25T01:52:30.292Z,994.86
2023-02-25T01:53:10.812Z,994.85
2023-02-25T01:53:51.356Z,994.87
2023-02-25T01:54:31.876Z,994.86
2023-02-25T01:55:12.402Z,994.87
2023-02-25T01:55:52.911Z,994.86
2023-02-25T01:56:33.462Z,994.84
2023-02-25T01:57:13.988Z,994.8
2023-02-25T01:57:54.530Z,994.79
2023-02-25T01:58:35.052Z,994.78
2023-02-25T01:59:16.562Z,994.8
2023-02-25T01:59:57.073Z,994.84
2023-02-25T02:00:37.622Z,994.84
2023-02-25T02:01:18.138Z,994.88
2023-02-25T02:01:58.673Z,994.84
2023-02-25T02:02:39.228Z,994.85
2023-02-25T02:03:19.713Z,994.84
2023-02-25T02:04:00.239Z,994.88
2023-02-25T02:04:41.710Z,994.91
2023-02-25T02:05:22.227Z,994.86
2023-02-25T02:06:02.783Z,994.86
2023-02-25T02:06:43.265Z,994.88
2023-02-25T02:07:23.780Z,994.88
2023-02-25T02:08:04.295Z,994.87
2023-02-25T02:08:44.811Z,994.93
2023-02-25T02:09:25.331Z,994.91
2023-02-25T02:10:05.851Z,994.88
2023-02-25T02:10:46.365Z,994.86
2023-02-25T02:11:26.919Z,994.88
2023-02-25T02:12:07.425Z,994.89
2023-02-25T02:12:47.979Z,994.86
2023-02-25T02:13:28.507Z,994.84
2023-02-25T02:14:09.019Z,994.85
2023-02-25T02:14:49.556Z,994.83
2023-02-25T02:15:30.055Z,994.89
2023-02-25T02:16:10.680Z,994.87
2023-02-25T02:16:51.151Z,994.88
2023-02-25T02:17:31.672Z,994.88
2023-02-25T02:18:12.181Z,994.86
2023-02-25T02:18:52.701Z,994.89
2023-02-25T02:19:33.217Z,994.89
2023-02-25T02:20:13.795Z,994.93
2023-02-25T02:20:54.318Z,994.89
2023-02-25T02:21:34.835Z,994.92
2023-02-25T02:22:15.368Z,994.93
2023-02-25T02:22:56.377Z,994.92
2023-02-25T02:23:36.934Z,994.99
2023-02-25T02:24:17.481Z,994.94
2023-02-25T02:24:58.100Z,994.91
2023-02-25T02:25:38.624Z,994.91
2023-02-25T02:26:19.135Z,994.92
2023-02-25T02:26:59.661Z,994.91
2023-02-25T02:27:40.159Z,994.95
2023-02-25T02:28:20.687Z,994.97
2023-02-25T02:29:01.198Z,994.91
2023-02-25T02:29:42.388Z,994.95
2023-02-25T02:30:23.073Z,994.95
2023-02-25T02:31:03.677Z,994.97
2023-02-25T02:31:44.197Z,994.94
2023-02-25T02:32:24.708Z,994.98
2023-02-25T02:33:05.152Z,994.97
2023-02-25T02:33:45.670Z,994.95
2023-02-25T02:34:27.070Z,994.95
2023-02-25T02:35:07.698Z,994.98
2023-02-25T02:35:48.209Z,995.01
2023-02-25T02:36:28.730Z,995
2023-02-25T02:37:09.245Z,994.99
2023-02-25T02:37:50.509Z,995.01
2023-02-25T02:38:31.029Z,995.01
2023-02-25T02:39:11.552Z,994.96
2023-02-25T02:39:52.061Z,994.97
2023-02-25T02:40:32.584Z,995.04
2023-02-25T02:41:13.092Z,995.01
2023-02-25T02:41:53.617Z,995
2023-02-25T02:42:34.129Z,995
2023-02-25T02:43:14.645Z,994.98
2023-02-25T02:43:55.158Z,995.01
2023-02-25T02:44:35.680Z,995
2023-02-25T02:45:16.703Z,995.01
2023-02-25T02:45:57.275Z,995.01
2023-02-25T02:46:37.741Z,995.01
2023-02-25T02:47:18.257Z,995.04
2023-02-25T02:47:58.786Z,995.07
2023-02-25T02:48:39.331Z,995.07
2023-02-25T02:49:19.840Z,995.02
2023-02-25T02:50:00.556Z,995.07
2023-02-25T02:50:41.075Z,995.09
2023-02-25T02:51:21.592Z,995.05
2023-02-25T02:52:02.117Z,995.08
2023-02-25T02:52:42.621Z,995.11
2023-02-25T02:53:23.150Z,995.11
2023-02-25T02:54:03.656Z,995.07
2023-02-25T02:54:44.204Z,995.11
2023-02-25T02:55:24.801Z,995.12
2023-02-25T02:56:05.309Z,995.15
2023-02-25T02:56:45.860Z,995.18
2023-02-25T02:57:26.382Z,995.16
2023-02-25T02:58:06.900Z,995.18
2023-02-25T02:58:47.411Z,995.16
2023-02-25T02:59:27.984Z,995.27
2023-02-25T03:00:08.458Z,995.24
2023-02-25T03:00:48.980Z,995.24
2023-02-25T03:01:29.640Z,995.26
2023-02-25T03:02:09.994Z,995.25
2023-02-25T03:02:50.508Z,995.27
2023-02-25T03:03:31.172Z,995.26
2023-02-25T03:04:11.693Z,995.29
2023-02-25T03:04:52.130Z,995.32
2023-02-25T03:05:32.643Z,995.34
2023-02-25T03:06:13.160Z,995.32
2023-02-25T03:06:53.708Z,995.33
2023-02-25T03:07:34.228Z,995.36
2023-02-25T03:08:14.761Z,995.4
2023-02-25T03:08:55.258Z,995.36
2023-02-25T03:09:35.847Z,995.4
2023-02-25T03:10:17.182Z,995.39
2023-02-25T03:10:57.695Z,995.29
2023-02-25T03:11:38.215Z,995.34
2023-02-25T03:12:18.733Z,995.35
2023-02-25T03:12:59.245Z,995.31
2023-02-25T03:13:39.767Z,995.36
2023-02-25T03:14:20.516Z,995.32
2023-02-25T03:15:01.036Z,995.3
2023-02-25T03:15:41.569Z,995.31
2023-02-25T03:16:22.387Z,995.3
2023-02-25T03:17:02.698Z,995.34
2023-02-25T03:17:43.105Z,995.32
2023-02-25T03:18:23.656Z,995.26
2023-02-25T03:19:04.184Z,995.3
2023-02-25T03:19:44.690Z,995.28
2023-02-25T03:20:25.205Z,995.35
2023-02-25T03:21:05.720Z,995.33
2023-02-25T03:21:46.249Z,995.34
2023-02-25T03:22:26.795Z,995.34
2023-02-25T03:23:07.309Z,995.33
2023-02-25T03:23:47.830Z,995.33
2023-02-25T03:24:28.341Z,995.34
2023-02-25T03:25:08.857Z,995.35
2023-02-25T03:25:49.399Z,995.37
2023-02-25T03:26:30.928Z,995.4
2023-02-25T03:27:11.437Z,995.4
2023-02-25T03:27:51.950Z,995.37
2023-02-25T03:28:32.470Z,995.42
2023-02-25T03:29:12.984Z,995.41
2023-02-25T03:29:53.500Z,995.39
2023-02-25T03:30:34.053Z,995.38
2023-02-25T03:31:15.512Z,995.38
2023-02-25T03:31:56.097Z,995.38
2023-02-25T03:32:37.541Z,995.37
2023-02-25T03:33:17.040Z,995.36
2023-02-25T03:33:57.560Z,995.38
2023-02-25T03:34:38.098Z,995.33
2023-02-25T03:35:18.665Z,995.33
2023-02-25T03:36:00.108Z,995.35
2023-02-25T03:36:40.581Z,995.32
2023-02-25T03:37:21.107Z,995.37
2023-02-25T03:38:01.619Z,995.36
2023-02-25T03:38:42.132Z,995.37
2023-02-25T03:39:22.650Z,995.41
2023-02-25T03:40:03.176Z,995.39
2023-02-25T03:40:43.732Z,995.4
2023-02-25T03:41:24.247Z,995.44
2023-02-25T03:42:04.761Z,995.43
2023-02-25T03:42:45.306Z,995.46
2023-02-25T03:43:25.836Z,995.48
2023-02-25T03:44:07.085Z,995.47
2023-02-25T03:44:47.639Z,995.44
2023-02-25T03:45:28.195Z,995.49
2023-02-25T03:46:08.784Z,995.48
2023-02-25T03:46:49.263Z,995.49
2023-02-25T03:47:29.809Z,995.47
2023-02-25T03:48:10.350Z,995.49
2023-02-25T03:48:50.850Z,995.47
2023-02-25T03:49:31.397Z,995.41
2023-02-25T03:50:11.917Z,995.42
2023-02-25T03:50:52.425Z,995.48
2023-02-25T03:51:32.948Z,995.46
2023-02-25T03:52:13.496Z,995.43
2023-02-25T03:52:54.055Z,995.47
2023-02-25T03:53:35.218Z,995.46
2023-02-25T03:54:15.143Z,995.47
2023-02-25T03:54:55.696Z,995.43
2023-02-25T03:55:36.213Z,995.44
2023-02-25T03:56:16.796Z,995.44
2023-02-25T03:56:57.314Z,995.43
2023-02-25T03:57:37.827Z,995.46
2023-02-25T03:58:18.343Z,995.48
2023-02-25T03:58:58.891Z,995.49
2023-02-25T03:59:39.410Z,995.46
2023-02-25T04:00:19.963Z,995.52
2023-02-25T04:01:00.516Z,995.54
2023-02-25T04:01:41.047Z,995.5
2023-02-25T04:02:21.593Z,995.54
2023-02-25T04:03:02.115Z,995.55
2023-02-25T04:03:42.673Z,995.55
2023-02-25T04:04:23.403Z,995.57
2023-02-25T04:05:03.687Z,995.61
2023-02-25T04:05:44.198Z,995.64
2023-02-25T04:06:26.553Z,995.65
2023-02-25T04:07:07.064Z,995.66
2023-02-25T04:07:47.590Z,995.7
2023-02-25T04:08:28.109Z,995.69
2023-02-25T04:09:08.631Z,995.66
2023-02-25T04:09:49.145Z,995.67
2023-02-25T04:10:30.624Z,995.67
2023-02-25T04:11:11.160Z,995.68
2023-02-25T04:11:51.684Z,995.69
2023-02-25T04:12:32.197Z,995.63
2023-02-25T04:13:12.721Z,995.67
2023-02-25T04:13:53.258Z,995.63
2023-02-25T04:14:33.788Z,995.64
2023-02-25T04:15:14.321Z,995.63
2023-02-25T04:15:54.874Z,995.64
2023-02-25T04:16:35.364Z,995.64
2023-02-25T04:17:16.424Z,995.66
2023-02-25T04:17:56.940Z,995.65
2023-02-25T04:18:37.478Z,995.66
2023-02-25T04:20:35.446Z,995.68
2023-02-25T04:21:15.996Z,995.68
2023-02-25T04:21:56.528Z,995.69
2023-02-25T04:22:37.054Z,995.69
2023-02-25T04:23:17.558Z,995.71
2023-02-25T04:23:58.095Z,995.69
2023-02-25T04:24:38.634Z,995.67
2023-02-25T04:25:19.146Z,995.7
2023-02-25T04:25:59.659Z,995.71
2023-02-25T04:26:40.182Z,995.75
2023-02-25T04:27:20.697Z,995.74
2023-02-25T04:28:01.244Z,995.79
2023-02-25T04:28:41.762Z,995.74
2023-02-25T04:29:22.302Z,995.79
2023-02-25T04:30:03.688Z,995.77
2023-02-25T04:30:44.391Z,995.77
2023-02-25T04:31:25.643Z,995.75
2023-02-25T04:32:06.292Z,995.73
2023-02-25T04:32:47.383Z,995.75
2023-02-25T04:33:28.620Z,995.73
2023-02-25T04:34:09.143Z,995.73
2023-02-25T04:34:49.724Z,995.73
2023-02-25T04:35:30.243Z,995.75
2023-02-25T04:36:10.791Z,995.74
2023-02-25T04:36:51.275Z,995.77
2023-02-25T04:37:31.878Z,995.74
2023-02-25T04:38:12.415Z,995.74
2023-02-25T04:38:52.932Z,995.74
2023-02-25T04:39:33.446Z,995.74
2023-02-25T04:40:13.951Z,995.76
2023-02-25T04:40:54.482Z,995.72
2023-02-25T04:41:34.998Z,995.74
2023-02-25T04:42:15.544Z,995.76
2023-02-25T04:42:56.061Z,995.76
2023-02-25T04:43:36.576Z,995.75
2023-02-25T04:44:17.127Z,995.77
2023-02-25T04:44:57.646Z,995.74
2023-02-25T04:45:38.186Z,995.68
2023-02-25T04:46:18.754Z,995.68
2023-02-25T04:46:59.227Z,995.69
2023-02-25T04:47:39.747Z,995.68
2023-02-25T04:48:20.266Z,995.72
2023-02-25T04:49:00.798Z,995.73
2023-02-25T04:49:41.325Z,995.75
2023-02-25T04:50:21.848Z,995.74
2023-02-25T04:51:02.379Z,995.76
2023-02-25T04:51:42.956Z,995.76
2023-02-25T04:52:23.473Z,995.74
2023-02-25T04:53:04.701Z,995.73
2023-02-25T04:53:46.184Z,995.73
2023-02-25T04:54:27.335Z,995.72
2023-02-25T04:55:07.852Z,995.73
2023-02-25T04:55:48.381Z,995.71
2023-02-25T04:56:28.889Z,995.71
2023-02-25T04:57:09.402Z,995.72
2023-02-25T04:57:49.921Z,995.7
2023-02-25T04:58:30.438Z,995.71
2023-02-25T04:59:10.965Z,995.7
2023-02-25T04:59:51.638Z,995.67
2023-02-25T05:00:32.088Z,995.66
2023-02-25T05:01:12.643Z,995.63
2023-02-25T05:01:53.216Z,995.66
2023-02-25T05:02:33.715Z,995.66
2023-02-25T05:03:14.234Z,995.7
2023-02-25T05:03:54.742Z,995.7
2023-02-25T05:04:35.280Z,995.76
2023-02-25T05:05:15.782Z,995.72
2023-02-25T05:05:56.286Z,995.73
2023-02-25T05:06:36.813Z,995.78
2023-02-25T05:07:17.390Z,995.78
2023-02-25T05:07:57.881Z,995.74
2023-02-25T05:08:38.394Z,995.77
2023-02-25T05:09:18.973Z,995.74
2023-02-25T05:09:59.464Z,995.76
2023-02-25T05:10:39.980Z,995.77
2023-02-25T05:11:20.494Z,995.81
2023-02-25T05:12:02.967Z,995.8
2023-02-25T05:12:43.517Z,995.81
2023-02-25T05:13:24.062Z,995.85
2023-02-25T05:14:04.639Z,995.78
2023-02-25T05:14:45.128Z,995.83
2023-02-25T05:15:25.650Z,995.8
2023-02-25T05:16:06.198Z,995.79
2023-02-25T05:16:46.715Z,995.77
2023-02-25T05:17:27.265Z,995.75
2023-02-25T05:18:07.787Z,995.75
2023-02-25T05:18:48.297Z,995.81
2023-02-25T05:19:28.916Z,995.75
2023-02-25T05:20:09.562Z,995.77
2023-02-25T05:20:50.020Z,995.78
2023-02-25T05:21:30.539Z,995.82
2023-02-25T05:22:11.048Z,995.85
2023-02-25T05:22:51.627Z,995.77
2023-02-25T05:23:32.119Z,995.77
2023-02-25T05:24:12.655Z,995.79
2023-02-25T05:24:53.190Z,995.79
2023-02-25T05:25:33.757Z,995.77
2023-02-25T05:26:14.216Z,995.76
2023-02-25T05:26:54.738Z,995.82
2023-02-25T05:27:35.253Z,995.79
2023-02-25T05:28:15.802Z,995.78
2023-02-25T05:28:56.317Z,995.77
2023-02-25T05:29:36.855Z,995.78
2023-02-25T05:30:17.349Z,995.78
2023-02-25T05:30:57.968Z,995.78
2023-02-25T05:31:38.559Z,995.81
2023-02-25T05:32:19.708Z,995.77
2023-02-25T05:33:00.161Z,995.8
2023-02-25T05:33:40.621Z,995.76
2023-02-25T05:34:21.142Z,995.79
2023-02-25T05:35:01.713Z,995.84
2023-02-25T05:35:42.208Z,995.78
2023-02-25T05:36:24.750Z,995.79
2023-02-25T05:37:03.270Z,995.82
2023-02-25T05:37:43.794Z,995.78
2023-02-25T05:38:24.335Z,995.8
2023-02-25T05:39:04.820Z,995.82
2023-02-25T05:39:45.411Z,995.79
2023-02-25T05:40:25.874Z,995.77
2023-02-25T05:41:06.427Z,995.76
2023-02-25T05:41:46.927Z,995.76
2023-02-25T05:42:27.436Z,995.78
2023-02-25T05:43:07.962Z,995.77
2023-02-25T05:43:48.472Z,995.76
2023-02-25T05:44:29.022Z,995.71
2023-02-25T05:45:09.538Z,995.71
2023-02-25T05:45:50.060Z,995.73
2023-02-25T05:46:30.588Z,995.68
2023-02-25T05:47:11.146Z,995.66
2023-02-25T05:47:51.608Z,995.61
2023-02-25T05:48:32.120Z,995.62
2023-02-25T05:49:13.444Z,995.59
2023-02-25T05:49:53.973Z,995.6
2023-02-25T05:50:34.502Z,995.61
2023-02-25T05:51:15.074Z,995.64
2023-02-25T05:51:55.561Z,995.65
2023-02-25T05:52:36.126Z,995.63
2023-02-25T05:53:16.665Z,995.61
2023-02-25T05:53:57.241Z,995.62
2023-02-25T05:54:38.547Z,995.6
2023-02-25T05:55:19.058Z,995.63
2023-02-25T05:55:59.585Z,995.6
2023-02-25T05:56:40.732Z,995.59
2023-02-25T05:57:21.262Z,995.64
2023-02-25T05:58:01.782Z,995.64
2023-02-25T05:58:42.339Z,995.68
2023-02-25T05:59:22.841Z,995.69
2023-02-25T06:00:03.469Z,995.69
2023-02-25T06:00:43.978Z,995.72
2023-02-25T06:01:24.536Z,995.74
2023-02-25T06:02:05.092Z,995.73
2023-02-25T06:02:45.567Z,995.78
2023-02-25T06:03:26.131Z,995.76
2023-02-25T06:04:06.596Z,995.78
2023-02-25T06:04:47.118Z,995.81
2023-02-25T06:05:27.665Z,995.78
2023-02-25T06:06:08.974Z,995.83
2023-02-25T06:06:50.461Z,995.85
2023-02-25T06:07:30.980Z,995.85
2023-02-25T06:08:11.508Z,995.88
2023-02-25T06:08:52.025Z,995.9
2023-02-25T06:09:32.617Z,995.88
2023-02-25T06:10:13.119Z,995.89
2023-02-25T06:10:53.776Z,995.85
2023-02-25T06:11:34.336Z,995.86
2023-02-25T06:12:14.825Z,995.86
2023-02-25T06:12:55.372Z,995.91
2023-02-25T06:13:35.882Z,995.94
2023-02-25T06:14:16.393Z,995.98
2023-02-25T06:16:30.002Z,996.05
2023-02-25T06:17:10.476Z,996.06
2023-02-25T06:17:50.995Z,996.05
2023-02-25T06:18:31.510Z,996.05
2023-02-25T06:19:12.140Z,996.07
2023-02-25T06:19:52.679Z,996.08
2023-02-25T06:20:33.198Z,996.09
2023-02-25T06:21:13.717Z,996.11
2023-02-25T06:21:54.262Z,996.09
2023-02-25T06:22:34.789Z,996.06
2023-02-25T06:23:15.297Z,996.13
2023-02-25T06:23:55.847Z,996.08
2023-02-25T06:24:36.359Z,996.06
2023-02-25T06:25:16.880Z,996.03
2023-02-25T06:25:57.410Z,996.08
2023-02-25T06:26:37.952Z,996.1
2023-02-25T06:27:18.467Z,996.08
2023-02-25T06:27:58.989Z,996.1
2023-02-25T06:28:39.540Z,996.08
2023-02-25T06:29:20.072Z,996.06
2023-02-25T06:30:00.604Z,996.09
2023-02-25T06:30:41.154Z,996.09
2023-02-25T06:31:21.666Z,996.09
2023-02-25T06:32:02.251Z,996.08
2023-02-25T06:32:42.678Z,996.05
2023-02-25T06:33:23.214Z,996.09
2023-02-25T06:34:03.737Z,996.09
2023-02-25T06:34:44.263Z,996.13
2023-02-25T06:35:24.768Z,996.08
2023-02-25T06:36:05.318Z,996.1
2023-02-25T06:36:45.845Z,996.08
2023-02-25T06:37:26.388Z,996.08
2023-02-25T06:38:07.282Z,996.15
2023-02-25T06:38:47.829Z,996.18
2023-02-25T06:39:29.083Z,996.2
2023-02-25T06:40:09.635Z,996.22
2023-02-25T06:40:50.134Z,996.27
2023-02-25T06:43:03.221Z,996.28
2023-02-25T06:43:43.735Z,996.27
2023-02-25T06:44:24.256Z,996.3
2023-02-25T06:45:04.798Z,996.33
2023-02-25T06:45:45.299Z,996.28
2023-02-25T06:46:26.401Z,996.28
2023-02-25T06:47:06.322Z,996.25
2023-02-25T06:47:46.844Z,996.23
2023-02-25T06:48:27.389Z,996.24
2023-02-25T06:49:07.903Z,996.25
2023-02-25T06:49:48.413Z,996.26
2023-02-25T06:50:28.932Z,996.28
2023-02-25T06:51:09.716Z,996.3
2023-02-25T06:51:49.973Z,996.35
2023-02-25T06:52:30.556Z,996.37
2023-02-25T06:53:11.009Z,996.32
2023-02-25T06:53:51.521Z,996.35
2023-02-25T06:54:32.064Z,996.36
2023-02-25T06:55:12.613Z,996.35
2023-02-25T06:55:53.106Z,996.35
2023-02-25T06:56:33.622Z,996.33
2023-02-25T06:57:15.090Z,996.35
2023-02-25T06:57:55.642Z,996.37
2023-02-25T06:58:36.173Z,996.39
2023-02-25T06:59:16.803Z,996.38
2023-02-25T06:59:57.329Z,996.42
2023-02-25T07:00:37.849Z,996.47
2023-02-25T07:01:18.399Z,996.46
2023-02-25T07:01:58.888Z,996.47
2023-02-25T07:02:39.399Z,996.42
2023-02-25T07:03:19.945Z,996.45
2023-02-25T07:04:00.466Z,996.48
2023-02-25T07:04:42.977Z,996.46
2023-02-25T07:05:21.543Z,996.46
2023-02-25T07:06:02.051Z,996.43
2023-02-25T07:06:42.581Z,996.44
2023-02-25T07:07:23.115Z,996.42
2023-02-25T07:08:03.634Z,996.47
2023-02-25T07:08:44.187Z,996.46
2023-02-25T07:09:24.704Z,996.45
2023-02-25T07:10:05.217Z,996.48
2023-02-25T07:10:45.758Z,996.52
2023-02-25T07:11:26.255Z,996.52
2023-02-25T07:12:06.765Z,996.54
2023-02-25T07:12:47.283Z,996.52
2023-02-25T07:13:27.802Z,996.57
2023-02-25T07:14:08.318Z,996.56
2023-02-25T07:14:48.868Z,996.55
2023-02-25T07:15:29.445Z,996.56
2023-02-25T07:16:09.948Z,996.57
2023-02-25T07:16:50.429Z,996.56
2023-02-25T07:17:30.966Z,996.55
2023-02-25T07:18:11.483Z,996.56
2023-02-25T07:18:52.011Z,996.58
2023-02-25T07:19:32.516Z,996.56
2023-02-25T07:20:13.031Z,996.56
2023-02-25T07:20:53.554Z,996.56
2023-02-25T07:21:34.142Z,996.58
2023-02-25T07:22:14.668Z,996.59
2023-02-25T07:22:55.174Z,996.65
2023-02-25T07:23:35.727Z,996.61
2023-02-25T07:24:16.252Z,996.6
2023-02-25T07:24:56.807Z,996.63
2023-02-25T07:25:37.269Z,996.66
2023-02-25T07:26:17.849Z,996.67
2023-02-25T07:26:58.300Z,996.64
2023-02-25T07:27:38.823Z,996.63
2023-02-25T07:28:19.340Z,996.62
2023-02-25T07:28:59.868Z,996.67
2023-02-25T07:29:41.194Z,996.61
2023-02-25T07:30:21.722Z,996.61
2023-02-25T07:31:02.378Z,996.61
2023-02-25T07:31:42.874Z,996.64
2023-02-25T07:32:23.503Z,996.62
2023-02-25T07:33:05.815Z,996.62
2023-02-25T07:33:44.364Z,996.6
2023-02-25T07:34:24.873Z,996.61
2023-02-25T07:35:05.421Z,996.59
2023-02-25T07:35:45.978Z,996.59
2023-02-25T07:36:26.526Z,996.57
2023-02-25T07:37:07.044Z,996.58
2023-02-25T07:37:47.574Z,996.61
2023-02-25T07:38:28.114Z,996.59
2023-02-25T07:39:08.626Z,996.65
2023-02-25T07:39:49.181Z,996.56
2023-02-25T07:40:29.738Z,996.62
2023-02-25T07:41:10.278Z,996.6
2023-02-25T07:41:50.853Z,996.62
2023-02-25T07:42:31.384Z,996.61
2023-02-25T07:43:11.903Z,996.62
2023-02-25T07:43:52.456Z,996.65
2023-02-25T07:44:32.989Z,996.6
2023-02-25T07:45:13.534Z,996.61
2023-02-25T07:45:54.075Z,996.64
2023-02-25T07:46:34.624Z,996.59
2023-02-25T07:47:15.073Z,996.58
2023-02-25T07:47:55.587Z,996.64
2023-02-25T07:48:36.101Z,996.61
2023-02-25T07:49:16.623Z,996.62
2023-02-25T07:49:57.140Z,996.62
2023-02-25T07:50:37.762Z,996.59
2023-02-25T07:51:18.478Z,996.59
2023-02-25T07:51:58.995Z,996.67
2023-02-25T07:52:39.514Z,996.61
2023-02-25T07:53:20.034Z,996.66
2023-02-25T07:54:00.603Z,996.65
2023-02-25T07:54:41.091Z,996.65
2023-02-25T07:55:21.621Z,996.67
2023-02-25T07:56:02.180Z,996.68
2023-02-25T07:56:42.722Z,996.71
2023-02-25T07:57:23.256Z,996.68
2023-02-25T07:58:05.311Z,996.68
2023-02-25T07:58:44.308Z,996.69
2023-02-25T07:59:24.818Z,996.67
2023-02-25T08:00:05.336Z,996.67
2023-02-25T08:00:45.886Z,996.72
2023-02-25T08:01:26.657Z,996.69
2023-02-25T08:02:06.964Z,996.65
2023-02-25T08:02:47.602Z,996.66
2023-02-25T08:03:28.024Z,996.61
2023-02-25T08:04:08.565Z,996.65
2023-02-25T08:04:50.078Z,996.68
2023-02-25T08:05:30.489Z,996.62
2023-02-25T08:06:11.039Z,996.61
2023-02-25T08:08:08.711Z,996.6
2023-02-25T08:08:49.217Z,996.55
2023-02-25T08:09:29.732Z,996.57
2023-02-25T08:10:10.253Z,996.58
2023-02-25T08:10:50.806Z,996.62
2023-02-25T08:11:31.283Z,996.62
2023-02-25T08:12:11.836Z,996.65
2023-02-25T08:12:52.375Z,996.65
2023-02-25T08:13:32.871Z,996.61
2023-02-25T08:14:13.390Z,996.66
2023-02-25T08:14:53.900Z,996.67
2023-02-25T08:15:34.446Z,996.7
2023-02-25T08:16:14.943Z,996.73
2023-02-25T08:16:55.494Z,996.74
2023-02-25T08:17:36.003Z,996.72
2023-02-25T08:18:16.527Z,996.75
2023-02-25T08:18:57.040Z,996.77
2023-02-25T08:19:38.404Z,996.74
2023-02-25T08:20:18.922Z,996.71
2023-02-25T08:21:01.326Z,996.71
2023-02-25T08:21:39.954Z,996.7
2023-02-25T08:22:20.473Z,996.64
2023-02-25T08:23:01.029Z,996.67
2023-02-25T08:23:41.577Z,996.74
2023-02-25T08:24:22.099Z,996.72
2023-02-25T08:25:02.607Z,996.69
2023-02-25T08:25:43.129Z,996.75
2023-02-25T08:26:23.668Z,996.77
2023-02-25T08:27:04.158Z,996.72
2023-02-25T08:27:44.708Z,996.75
2023-02-25T08:28:25.248Z,996.83
2023-02-25T08:29:05.750Z,996.78
2023-02-25T08:29:46.293Z,996.83
2023-02-25T08:31:44.399Z,996.73
2023-02-25T08:32:24.880Z,996.79
2023-02-25T08:33:05.323Z,996.7
2023-02-25T08:33:45.813Z,996.76
2023-02-25T08:34:26.382Z,996.73
2023-02-25T08:35:06.877Z,996.74
2023-02-25T08:35:47.394Z,996.77